createdAt,value
2022-08-25T00:00:22.578Z,89.25
2022-08-25T00:02:55.144Z,88.83
2022-08-25T00:05:27.751Z,88.76
2022-08-25T00:07:58.073Z,88.32
2022-08-25T00:10:26.516Z,88.45
2022-08-25T00:12:54.935Z,87.70
2022-08-25T00:15:23.961Z,87.58
2022-08-25T00:17:52.664Z,87.20
2022-08-25T00:20:22.904Z,87.01
2022-08-25T00:22:51.810Z,87.24
2022-08-25T00:25:20.371Z,87.21
2022-08-25T00:27:49.829Z,86.85
2022-08-25T00:30:18.585Z,87.22
2022-08-25T00:32:55.164Z,87.16
2022-08-25T00:35:26.420Z,86.88
2022-08-25T00:37:55.546Z,86.48
2022-08-25T00:40:26.278Z,86.98
2022-08-25T00:42:56.087Z,86.58
2022-08-25T00:45:25.432Z,86.35
2022-08-25T00:47:53.976Z,86.28
2022-08-25T00:50:26.761Z,86.05
2022-08-25T00:52:59.103Z,85.85
2022-08-25T00:55:39.803Z,85.73
2022-08-25T00:58:14.600Z,86.35
2022-08-25T01:00:50.982Z,86.47
2022-08-25T01:03:20.573Z,86.64
2022-08-25T01:05:56.989Z,86.79
2022-08-25T01:08:28.949Z,86.45
2022-08-25T01:11:03.033Z,86.81
2022-08-25T01:13:45.275Z,87.08
2022-08-25T01:16:16.330Z,87.14
2022-08-25T01:18:56.462Z,87.42
2022-08-25T01:21:25.636Z,87.37
2022-08-25T01:23:58.300Z,87.27
2022-08-25T01:26:32.806Z,87.30
2022-08-25T01:29:22.766Z,87.49
2022-08-25T01:32:03.827Z,87.70
2022-08-25T01:34:36.613Z,87.86
2022-08-25T01:37:05.792Z,87.97
2022-08-25T01:39:36.824Z,87.81
2022-08-25T01:42:11.672Z,88.02
2022-08-25T01:44:43.705Z,88.10
2022-08-25T01:47:13.825Z,87.91
2022-08-25T01:49:42.411Z,87.99
2022-08-25T01:52:16.927Z,87.81
2022-08-25T01:54:45.478Z,88.38
2022-08-25T01:57:13.870Z,88.74
2022-08-25T01:59:42.543Z,88.33
2022-08-25T02:02:11.012Z,88.77
2022-08-25T02:04:44.375Z,88.68
2022-08-25T02:07:13.225Z,88.86
2022-08-25T02:09:41.617Z,89.30
2022-08-25T02:12:09.980Z,89.62
2022-08-25T02:14:38.552Z,89.47
2022-08-25T02:17:07.076Z,89.49
2022-08-25T02:19:38.003Z,89.66
2022-08-25T02:22:06.506Z,89.91
2022-08-25T02:24:35.120Z,90.11
2022-08-25T02:27:05.240Z,90.04
2022-08-25T02:29:33.929Z,89.69
2022-08-25T02:32:03.227Z,89.74
2022-08-25T02:34:31.874Z,89.88
2022-08-25T02:37:00.254Z,89.87
2022-08-25T02:39:28.571Z,90.28
2022-08-25T02:41:57.287Z,90.11
2022-08-25T02:44:25.715Z,90.57
2022-08-25T02:46:54.209Z,90.76
2022-08-25T02:49:22.513Z,90.57
2022-08-25T02:51:50.943Z,90.58
2022-08-25T02:54:19.204Z,90.75
2022-08-25T02:56:48.622Z,90.58
2022-08-25T02:59:18.173Z,90.77
2022-08-25T03:01:46.899Z,90.76
2022-08-25T03:04:15.235Z,90.67
2022-08-25T03:06:44.233Z,90.92
2022-08-25T03:09:13.702Z,90.99
2022-08-25T03:11:42.024Z,91.07
2022-08-25T03:14:11.086Z,91.25
2022-08-25T03:16:40.518Z,91.64
2022-08-25T03:19:11.363Z,91.99
2022-08-25T03:21:40.140Z,92.19
2022-08-25T03:24:08.626Z,92.23
2022-08-25T03:26:55.933Z,92.16
2022-08-25T03:29:31.224Z,92.13
2022-08-25T03:32:00.915Z,92.88
2022-08-25T03:34:30.700Z,92.89
2022-08-25T03:36:59.789Z,92.95
2022-08-25T03:39:29.148Z,93.51
2022-08-25T03:41:59.407Z,93.76
2022-08-25T03:44:27.790Z,93.73
2022-08-25T03:46:56.121Z,93.96
2022-08-25T03:49:24.703Z,94.15
2022-08-25T03:51:54.912Z,94.24
2022-08-25T03:54:25.806Z,94.41
2022-08-25T03:56:54.985Z,94.54
2022-08-25T03:59:23.597Z,94.99
2022-08-25T04:01:55.164Z,94.96
2022-08-25T04:04:24.427Z,95.47
2022-08-25T04:06:53.148Z,95.51
2022-08-25T04:09:22.077Z,95.96
2022-08-25T04:11:53.206Z,95.86
2022-08-25T04:14:23.599Z,96.33
2022-08-25T04:16:53.178Z,96.33
2022-08-25T04:19:22.106Z,96.75
2022-08-25T04:21:51.821Z,96.86
2022-08-25T04:24:25.210Z,97.07
2022-08-25T04:26:53.741Z,97.11
2022-08-25T04:29:24.585Z,97.57
2022-08-25T04:31:54.678Z,97.97
2022-08-25T04:34:30.601Z,97.61
2022-08-25T04:37:02.549Z,98.23
2022-08-25T04:39:31.405Z,98.39
2022-08-25T04:42:02.900Z,98.72
2022-08-25T04:44:32.049Z,98.61
2022-08-25T04:47:02.014Z,99.18
2022-08-25T04:49:32.736Z,99.21
2022-08-25T04:52:01.145Z,99.29
2022-08-25T04:54:29.527Z,99.37
2022-08-25T04:57:05.786Z,99.58
2022-08-25T04:59:34.247Z,99.86
2022-08-25T05:02:03.403Z,99.77
2022-08-25T05:04:34.858Z,100.00
2022-08-25T05:07:04.363Z,99.89
2022-08-25T05:09:33.076Z,100.00
2022-08-25T05:12:02.777Z,100.00
2022-08-25T05:14:32.559Z,100.00
2022-08-25T05:17:01.117Z,100.00
2022-08-25T05:19:29.966Z,100.00
2022-08-25T05:21:59.113Z,100.00
2022-08-25T05:24:28.317Z,100.00
2022-08-25T05:26:57.377Z,100.00
2022-08-25T05:29:26.193Z,100.00
2022-08-25T05:31:54.678Z,100.00
2022-08-25T05:34:23.201Z,100.00
2022-08-25T05:36:51.683Z,100.00
2022-08-25T05:39:20.355Z,100.00
2022-08-25T05:41:48.743Z,100.00
2022-08-25T05:44:20.944Z,100.00
2022-08-25T05:46:50.249Z,100.00
2022-08-25T05:49:19.245Z,100.00
2022-08-25T05:51:47.824Z,100.00
2022-08-25T05:54:16.309Z,100.00
2022-08-25T05:56:45.679Z,100.00
2022-08-25T05:59:14.096Z,100.00
2022-08-25T06:02:01.145Z,100.00
2022-08-25T06:04:29.548Z,100.00
2022-08-25T06:06:57.949Z,100.00
2022-08-25T06:09:26.559Z,100.00
2022-08-25T06:11:55.571Z,100.00
2022-08-25T06:14:25.800Z,100.00
2022-08-25T06:16:54.532Z,100.00
2022-08-25T06:19:23.652Z,100.00
2022-08-25T06:21:57.404Z,100.00
2022-08-25T06:24:27.045Z,100.00
2022-08-25T06:26:56.797Z,100.00
2022-08-25T06:29:27.052Z,99.43
2022-08-25T06:31:55.529Z,99.08
2022-08-25T06:34:24.466Z,98.98
2022-08-25T06:36:53.310Z,98.96
2022-08-25T06:39:22.397Z,98.74
2022-08-25T06:41:55.384Z,98.67
2022-08-25T06:44:27.809Z,98.93
2022-08-25T06:46:56.270Z,98.76
2022-08-25T06:49:28.728Z,99.17
2022-08-25T06:51:58.419Z,99.08
2022-08-25T06:54:26.702Z,98.28
2022-08-25T06:56:55.025Z,97.45
2022-08-25T06:59:23.519Z,96.42
2022-08-25T07:01:52.336Z,95.96
2022-08-25T07:04:22.051Z,96.22
2022-08-25T07:06:50.701Z,95.08
2022-08-25T07:09:19.543Z,93.68
2022-08-25T07:11:48.166Z,92.77
2022-08-25T07:14:18.339Z,92.68
2022-08-25T07:16:50.265Z,93.84
2022-08-25T07:19:21.016Z,93.36
2022-08-25T07:21:52.360Z,92.07
2022-08-25T07:24:21.895Z,92.43
2022-08-25T07:26:51.697Z,92.39
2022-08-25T07:29:32.341Z,92.65
2022-08-25T07:32:02.418Z,93.32
2022-08-25T07:34:52.327Z,93.39
2022-08-25T07:40:33.631Z,92.90
2022-08-25T07:43:06.224Z,92.97
2022-08-25T07:45:37.632Z,92.65
2022-08-25T07:48:14.114Z,92.57
2022-08-25T07:50:48.405Z,93.27
2022-08-25T07:53:17.123Z,92.91
2022-08-25T07:55:47.138Z,92.39
2022-08-25T07:58:15.916Z,92.40
2022-08-25T08:00:48.103Z,93.21
2022-08-25T08:03:35.264Z,92.53
2022-08-25T08:06:09.800Z,92.20
2022-08-25T08:08:44.544Z,91.55
2022-08-25T08:11:17.532Z,92.26
2022-08-25T08:13:48.431Z,91.47
2022-08-25T08:16:20.585Z,92.26
2022-08-25T08:18:50.005Z,91.66
2022-08-25T08:21:32.320Z,91.33
2022-08-25T08:24:02.050Z,90.69
2022-08-25T08:26:55.472Z,90.64
2022-08-25T08:29:23.239Z,90.82
2022-08-25T08:31:51.649Z,91.70
2022-08-25T08:34:24.977Z,89.82
2022-08-25T08:36:53.795Z,89.71
2022-08-25T08:39:23.238Z,88.73
2022-08-25T08:42:29.605Z,88.59
2022-08-25T08:45:28.811Z,88.94
2022-08-25T08:48:10.196Z,87.42
2022-08-25T08:51:10.946Z,86.26
2022-08-25T08:53:57.299Z,86.34
2022-08-25T08:56:30.801Z,86.03
2022-08-25T08:59:05.769Z,85.32
2022-08-25T09:02:00.484Z,85.09
2022-08-25T09:04:48.560Z,84.72
2022-08-25T09:07:27.800Z,84.11
2022-08-25T09:09:57.987Z,84.75
2022-08-25T09:12:40.862Z,85.46
2022-08-25T09:15:20.718Z,84.73
2022-08-25T09:18:16.168Z,83.35
2022-08-25T09:20:59.829Z,83.46
2022-08-25T09:23:33.983Z,83.62
2022-08-25T09:26:36.157Z,84.66
2022-08-25T09:29:17.259Z,85.67
2022-08-25T09:31:48.490Z,85.42
2022-08-25T09:34:20.726Z,86.50
2022-08-25T09:36:52.883Z,86.78
2022-08-25T09:39:23.422Z,85.47
2022-08-25T09:41:59.167Z,87.15
2022-08-25T09:44:33.760Z,87.40
2022-08-25T09:47:08.179Z,87.05
2022-08-25T09:49:43.247Z,86.45
2022-08-25T09:52:27.314Z,86.22
2022-08-25T09:54:58.103Z,86.42
2022-08-25T09:57:36.357Z,86.80
2022-08-25T10:00:21.736Z,84.93
2022-08-25T10:03:05.908Z,84.55
2022-08-25T10:05:39.390Z,84.91
2022-08-25T10:08:24.773Z,85.01
2022-08-25T10:10:57.399Z,85.21
2022-08-25T10:13:49.890Z,85.44
2022-08-25T10:16:30.837Z,84.43
2022-08-25T10:19:21.306Z,83.84
2022-08-25T10:22:10.869Z,82.00
2022-08-25T10:24:43.971Z,83.81
2022-08-25T10:27:38.040Z,84.63
2022-08-25T10:30:28.029Z,83.83
2022-08-25T10:33:15.174Z,81.93
2022-08-25T10:36:23.584Z,83.43
2022-08-25T10:39:01.599Z,83.45
2022-08-25T10:41:54.337Z,82.61
2022-08-25T10:44:57.235Z,81.92
2022-08-25T10:47:31.821Z,82.51
2022-08-25T10:50:29.589Z,81.41
2022-08-25T10:53:21.225Z,80.11
2022-08-25T10:56:10.289Z,81.01
2022-08-25T10:58:57.039Z,80.35
2022-08-25T11:01:46.989Z,79.71
2022-08-25T11:04:48.597Z,79.90
2022-08-25T11:07:25.321Z,79.45
2022-08-25T11:10:00.019Z,78.76
2022-08-25T11:12:35.878Z,74.77
2022-08-25T11:15:11.154Z,78.69
2022-08-25T11:18:02.664Z,75.68
2022-08-25T11:21:01.992Z,74.87
2022-08-25T11:23:39.065Z,75.64
2022-08-25T11:26:17.774Z,74.08
2022-08-25T11:28:57.579Z,73.57
2022-08-25T11:31:28.328Z,73.93
2022-08-25T11:33:58.987Z,73.81
2022-08-25T11:36:32.544Z,73.07
2022-08-25T11:39:34.389Z,73.66
2022-08-25T11:42:43.346Z,71.00
2022-08-25T11:45:27.019Z,73.48
2022-08-25T11:48:24.579Z,71.56
2022-08-25T11:51:00.736Z,72.94
2022-08-25T11:53:33.514Z,71.29
2022-08-25T11:56:06.639Z,70.99
2022-08-25T11:58:50.076Z,68.91
2022-08-25T12:01:40.561Z,67.37
2022-08-25T12:04:44.386Z,67.37
2022-08-25T12:07:26.214Z,68.30
2022-08-25T12:09:54.574Z,66.99
2022-08-25T12:12:58.864Z,65.36
2022-08-25T12:15:42.887Z,66.53
2022-08-25T12:18:24.498Z,67.05
2022-08-25T12:20:52.794Z,66.42
2022-08-25T12:23:46.405Z,66.54
2022-08-25T12:26:34.520Z,66.28
2022-08-25T12:29:16.700Z,66.69
2022-08-25T12:31:57.499Z,67.00
2022-08-25T12:34:45.183Z,67.57
2022-08-25T12:37:13.938Z,66.70
2022-08-25T12:39:58.671Z,65.86
2022-08-25T12:42:29.967Z,66.32
2022-08-25T12:45:14.963Z,66.69
2022-08-25T12:47:47.701Z,65.87
2022-08-25T12:50:27.521Z,65.41
2022-08-25T12:53:07.579Z,65.73
2022-08-25T12:55:37.426Z,64.38
2022-08-25T12:58:07.530Z,65.40
2022-08-25T13:01:33.110Z,64.23
2022-08-25T13:07:04.859Z,64.69
2022-08-25T13:09:58.867Z,63.28
2022-08-25T13:13:04.619Z,62.34
2022-08-25T13:15:42.564Z,64.19
2022-08-25T13:18:22.617Z,64.22
2022-08-25T13:21:04.455Z,62.88
2022-08-25T13:23:37.941Z,64.50
2022-08-25T13:26:06.735Z,64.21
2022-08-25T13:28:40.841Z,63.76
2022-08-25T13:31:22.142Z,64.03
2022-08-25T13:34:02.383Z,62.93
2022-08-25T13:36:58.258Z,63.06
2022-08-25T13:39:52.683Z,63.20
2022-08-25T13:42:17.542Z,62.61
2022-08-25T13:44:51.773Z,63.21
2022-08-25T13:48:02.961Z,62.55
2022-08-25T13:50:39.772Z,63.12
2022-08-25T13:53:21.477Z,62.68
2022-08-25T13:56:02.309Z,62.99
2022-08-25T13:58:45.027Z,63.43
2022-08-25T14:01:45.024Z,62.88
2022-08-25T14:04:26.943Z,62.89
2022-08-25T14:07:08.473Z,61.26
2022-08-25T14:09:48.329Z,62.26
2022-08-25T14:12:39.681Z,62.29
2022-08-25T14:15:29.647Z,59.84
2022-08-25T14:18:09.622Z,60.80
2022-08-25T14:20:50.789Z,62.22
2022-08-25T14:23:27.054Z,62.04
2022-08-25T14:25:57.962Z,61.99
2022-08-25T14:28:29.373Z,61.48
2022-08-25T14:31:10.071Z,61.64
2022-08-25T14:33:55.818Z,60.98
2022-08-25T14:36:25.037Z,61.62
2022-08-25T14:38:55.057Z,60.41
2022-08-25T14:41:24.801Z,60.02
2022-08-25T14:43:53.825Z,59.35
2022-08-25T14:46:25.097Z,57.89
2022-08-25T14:48:59.717Z,57.14
2022-08-25T14:51:29.678Z,55.43
2022-08-25T14:54:02.767Z,54.84
2022-08-25T14:56:32.622Z,54.84
2022-08-25T14:59:01.774Z,56.96
2022-08-25T15:01:30.346Z,55.00
2022-08-25T15:04:06.839Z,55.30
2022-08-25T15:06:38.747Z,53.44
2022-08-25T15:09:17.199Z,54.22
2022-08-25T15:11:50.578Z,53.13
2022-08-25T15:14:29.033Z,51.22
2022-08-25T15:17:02.690Z,51.82
2022-08-25T15:19:31.591Z,52.77
2022-08-25T15:22:00.370Z,51.56
2022-08-25T15:24:29.437Z,51.30
2022-08-25T15:27:00.807Z,50.95
2022-08-25T15:29:31.923Z,51.60
2022-08-25T15:32:01.753Z,50.84
2022-08-25T15:34:31.000Z,51.34
2022-08-25T15:37:08.528Z,51.94
2022-08-25T15:39:38.869Z,51.45
2022-08-25T15:42:07.512Z,51.30
2022-08-25T15:44:35.881Z,52.44
2022-08-25T15:47:05.799Z,51.40
2022-08-25T15:49:35.253Z,50.76
2022-08-25T15:52:04.280Z,51.22
2022-08-25T15:54:33.242Z,50.36
2022-08-25T15:57:01.702Z,51.29
2022-08-25T15:59:30.594Z,51.12
2022-08-25T16:02:00.434Z,50.95
2022-08-25T16:04:29.502Z,51.54
2022-08-25T16:06:58.330Z,51.06
2022-08-25T16:09:27.118Z,51.77
2022-08-25T16:11:57.068Z,51.66
2022-08-25T16:14:27.584Z,51.78
2022-08-25T16:16:58.360Z,51.27
2022-08-25T16:19:31.544Z,52.38
2022-08-25T16:22:00.685Z,52.45
2022-08-25T16:24:29.118Z,51.75
2022-08-25T16:27:10.895Z,52.42
2022-08-25T16:29:44.045Z,51.72
2022-08-25T16:32:14.244Z,51.61
2022-08-25T16:34:42.846Z,52.45
2022-08-25T16:37:14.322Z,53.55
2022-08-25T16:39:46.118Z,53.25
2022-08-25T16:42:14.757Z,53.40
2022-08-25T16:44:43.837Z,53.14
2022-08-25T16:47:14.454Z,53.40
2022-08-25T16:49:46.880Z,52.68
2022-08-25T16:52:34.365Z,53.89
2022-08-25T16:55:16.386Z,54.37
2022-08-25T16:57:48.213Z,55.15
2022-08-25T17:00:24.078Z,55.69
2022-08-25T17:02:59.459Z,56.07
2022-08-25T17:05:29.365Z,56.44
2022-08-25T17:08:30.828Z,54.95
2022-08-25T17:11:05.877Z,55.28
2022-08-25T17:13:36.645Z,55.79
2022-08-25T17:16:07.463Z,55.99
2022-08-25T17:18:36.238Z,56.62
2022-08-25T17:21:11.091Z,57.40
2022-08-25T17:23:44.998Z,57.15
2022-08-25T17:26:17.201Z,57.68
2022-08-25T17:28:46.246Z,59.20
2022-08-25T17:31:15.762Z,61.33
2022-08-25T17:33:45.627Z,62.31
2022-08-25T17:36:17.090Z,63.85
2022-08-25T17:38:46.333Z,65.03
2022-08-25T17:41:15.020Z,66.53
2022-08-25T17:43:46.379Z,67.77
2022-08-25T17:46:15.325Z,69.04
2022-08-25T17:48:44.079Z,70.12
2022-08-25T17:51:13.052Z,70.88
2022-08-25T17:53:44.501Z,71.40
2022-08-25T17:56:18.551Z,71.67
2022-08-25T17:58:47.359Z,71.98
2022-08-25T18:01:24.944Z,72.08
2022-08-25T18:03:54.444Z,72.45
2022-08-25T18:06:26.267Z,73.08
2022-08-25T18:08:59.928Z,73.74
2022-08-25T18:11:30.143Z,74.46
2022-08-25T18:13:59.562Z,75.25
2022-08-25T18:16:30.350Z,76.26
2022-08-25T18:18:58.938Z,76.83
2022-08-25T18:21:30.562Z,77.73
2022-08-25T18:23:59.387Z,78.26
2022-08-25T18:26:28.289Z,78.50
2022-08-25T18:28:56.679Z,79.20
2022-08-25T18:31:25.542Z,80.82
2022-08-25T18:33:54.098Z,80.66
2022-08-25T18:36:22.572Z,82.43
2022-08-25T18:39:10.121Z,83.16
2022-08-25T18:41:41.328Z,83.91
2022-08-25T18:44:11.013Z,84.83
2022-08-25T18:46:40.207Z,85.72
2022-08-25T18:49:08.698Z,85.61
2022-08-25T18:51:37.699Z,87.54
2022-08-25T18:54:06.277Z,88.37
2022-08-25T18:56:35.014Z,89.29
2022-08-25T18:59:04.753Z,89.24
2022-08-25T19:01:36.587Z,90.18
2022-08-25T19:04:05.153Z,90.82
2022-08-25T19:06:33.339Z,90.79
2022-08-25T19:09:02.122Z,91.00
2022-08-25T19:11:31.248Z,91.67
2022-08-25T19:14:00.998Z,92.40
2022-08-25T19:16:38.727Z,92.47
2022-08-25T19:19:09.242Z,93.24
2022-08-25T19:21:38.658Z,91.17
2022-08-25T19:24:08.976Z,90.95
2022-08-25T19:26:37.608Z,91.50
2022-08-25T19:29:10.342Z,90.40
2022-08-25T19:31:39.741Z,91.97
2022-08-25T19:34:13.786Z,91.47
2022-08-25T19:36:43.901Z,92.39
2022-08-25T19:39:14.268Z,93.39
2022-08-25T19:41:46.494Z,93.13
2022-08-25T19:44:15.109Z,93.43
2022-08-25T19:46:45.306Z,92.92
2022-08-25T19:49:18.259Z,93.59
2022-08-25T19:51:51.553Z,94.16
2022-08-25T19:54:25.103Z,93.11
2022-08-25T19:56:55.612Z,93.66
2022-08-25T19:59:40.479Z,94.80
2022-08-25T20:02:16.827Z,95.42
2022-08-25T20:04:51.145Z,95.57
2022-08-25T20:07:22.976Z,96.77
2022-08-25T20:09:53.631Z,97.09
2022-08-25T20:12:24.248Z,97.49
2022-08-25T20:14:56.110Z,97.84
2022-08-25T20:17:28.343Z,98.15
2022-08-25T20:20:04.851Z,98.99
2022-08-25T20:22:33.859Z,99.22
2022-08-25T20:25:13.139Z,99.70
2022-08-25T20:27:54.708Z,100.00
2022-08-25T20:30:27.537Z,100.00
2022-08-25T20:32:57.350Z,100.00
2022-08-25T20:35:27.797Z,100.00
2022-08-25T20:37:58.294Z,100.00
2022-08-25T20:40:27.993Z,100.00
2022-08-25T20:43:03.094Z,100.00
2022-08-25T20:45:32.022Z,100.00
2022-08-25T20:48:00.444Z,100.00
2022-08-25T20:50:28.819Z,100.00
2022-08-25T20:52:58.744Z,100.00
2022-08-25T20:55:28.888Z,100.00
2022-08-25T20:57:57.294Z,100.00
2022-08-25T21:00:26.075Z,100.00
2022-08-25T21:02:57.239Z,100.00
2022-08-25T21:05:25.702Z,100.00
2022-08-25T21:07:54.810Z,100.00
2022-08-25T21:10:23.090Z,100.00
2022-08-25T21:12:53.464Z,100.00
2022-08-25T21:15:22.295Z,100.00
2022-08-25T21:17:54.462Z,100.00
2022-08-25T21:20:24.803Z,100.00
2022-08-25T21:22:54.918Z,100.00
2022-08-25T21:25:23.779Z,100.00
2022-08-25T21:27:52.514Z,100.00
2022-08-25T21:30:21.256Z,100.00
2022-08-25T21:32:53.031Z,100.00
2022-08-25T21:35:27.133Z,100.00
2022-08-25T21:37:55.491Z,100.00
2022-08-25T21:40:24.065Z,100.00
2022-08-25T21:42:52.726Z,100.00
2022-08-25T21:45:21.846Z,100.00
2022-08-25T21:47:52.001Z,100.00
2022-08-25T21:50:22.364Z,100.00
2022-08-25T21:52:54.336Z,100.00
2022-08-25T21:55:24.050Z,100.00
2022-08-25T21:57:53.123Z,100.00
2022-08-25T22:00:22.747Z,100.00
2022-08-25T22:02:51.599Z,100.00
2022-08-25T22:05:20.029Z,100.00
2022-08-25T22:07:48.621Z,100.00
2022-08-25T22:10:18.217Z,100.00
2022-08-25T22:12:48.213Z,100.00
2022-08-25T22:15:18.022Z,100.00
2022-08-25T22:17:48.183Z,100.00
2022-08-25T22:20:16.999Z,100.00
2022-08-25T22:22:45.552Z,100.00
2022-08-25T22:25:14.489Z,100.00
2022-08-25T22:27:43.119Z,100.00
2022-08-25T22:30:13.858Z,100.00
2022-08-25T22:32:45.732Z,100.00
2022-08-25T22:35:14.351Z,100.00
2022-08-25T22:37:43.357Z,100.00
2022-08-25T22:40:12.695Z,100.00
2022-08-25T22:42:46.083Z,100.00
2022-08-25T22:45:16.915Z,100.00
2022-08-25T22:47:48.792Z,100.00
2022-08-25T22:50:17.497Z,100.00
2022-08-25T22:52:47.719Z,100.00
2022-08-25T22:55:16.546Z,100.00
2022-08-25T22:57:45.188Z,100.00
2022-08-25T23:00:14.877Z,100.00
2022-08-25T23:02:44.801Z,100.00
2022-08-25T23:05:14.955Z,100.00
2022-08-25T23:07:43.543Z,100.00
2022-08-25T23:10:12.489Z,100.00
2022-08-25T23:12:42.655Z,100.00
2022-08-25T23:15:12.970Z,100.00
2022-08-25T23:17:42.663Z,100.00
2022-08-25T23:20:29.642Z,100.00
2022-08-25T23:22:59.317Z,100.00
2022-08-25T23:25:27.657Z,100.00
2022-08-25T23:27:56.486Z,100.00
2022-08-25T23:30:27.562Z,100.00
2022-08-25T23:32:56.068Z,100.00
2022-08-25T23:35:24.642Z,100.00
2022-08-25T23:37:52.997Z,100.00
2022-08-25T23:40:21.709Z,100.00
2022-08-25T23:42:51.333Z,100.00
2022-08-25T23:45:19.848Z,100.00
2022-08-25T23:47:49.652Z,100.00
2022-08-25T23:50:18.537Z,100.00
2022-08-25T23:52:47.688Z,100.00
2022-08-25T23:55:16.050Z,100.00
2022-08-25T23:57:45.059Z,100.00
